Time;durP1;ratioP1;P1;durP2;ratioP2;P2;SDS_P1;SDS_P2;PMS_P1;PMS_P2;Temp;Humidity;BMP_temperature;BMP_pressure;BME280_temperature;BME280_humidity;BME280_pressure;Samples;Min_cycle;Max_cycle;Signal;HPM_P1;HPM_P2
2022/03/18 00:01:56;;;;;;;11.40;4.50;;;;;;;3.08;81.88;102809.59;5013589;28;19971;-65
2022/03/18 00:04:59;;;;;;;13.18;5.07;;;;;;;3.16;81.53;102810.56;5013055;28;20522;-65
2022/03/18 00:08:06;;;;;;;;;;;;;;;3.26;80.77;102813.31;5013506;28;20096;-65
2022/03/18 00:11:09;;;;;;;11.38;4.78;;;;;;;2.98;81.25;102811.16;5012986;28;20318;-65
2022/03/18 00:14:13;;;;;;;;;;;;;;;2.91;81.67;102814.50;5013290;28;20170;-64
2022/03/18 00:17:16;;;;;;;12.48;5.03;;;;;;;3.00;81.36;102812.06;5012825;28;19939;-64
2022/03/18 00:20:21;;;;;;;15.27;5.13;;;;;;;3.19;81.22;102808.91;5013056;28;20099;-65
2022/03/18 00:23:24;;;;;;;11.10;4.97;;;;;;;3.31;80.17;102818.53;5012779;28;20108;-65
2022/03/18 00:26:27;;;;;;;10.43;4.68;;;;;;;3.21;80.28;102816.69;5012650;28;20045;-65
2022/03/18 00:29:32;;;;;;;13.88;5.32;;;;;;;3.01;80.87;102817.25;5000468;28;20126;-65
2022/03/18 00:32:39;;;;;;;8.57;5.22;;;;;;;2.86;81.61;102822.16;5012723;28;20044;-65
2022/03/18 00:35:43;;;;;;;11.88;5.22;;;;;;;2.85;81.78;102823.00;5012699;28;20522;-64
2022/03/18 00:38:46;;;;;;;;;;;;;;;3.06;81.17;102824.19;5012922;28;20053;-65
2022/03/18 00:41:50;;;;;;;7.78;3.67;;;;;;;3.03;81.06;102822.41;5012418;28;20007;-65
2022/03/18 00:44:53;;;;;;;14.95;6.18;;;;;;;2.99;80.88;102818.06;5012524;28;20052;-65
2022/03/18 00:54:45;;;;;;;12.25;5.65;;;;;;;2.80;81.01;102814.31;5012405;28;20104;-64
2022/03/18 00:57:48;;;;;;;11.57;5.88;;;;;;;2.65;82.11;102819.19;5012048;28;20091;-65
2022/03/18 01:00:51;;;;;;;15.85;5.80;;;;;;;2.74;81.91;102829.69;5012160;28;20056;-65
2022/03/18 01:03:54;;;;;;;16.20;6.18;;;;;;;2.90;81.50;102825.66;5011342;28;20056;-65
2022/03/18 01:06:58;;;;;;;11.30;5.65;;;;;;;2.75;81.06;102823.72;5011992;28;20120;-65
2022/03/18 01:10:01;;;;;;;14.10;5.53;;;;;;;2.66;81.62;102826.13;5012075;28;20100;-65
2022/03/18 01:13:05;;;;;;;10.52;5.10;;;;;;;2.74;81.68;102824.53;5011619;28;20080;-65
2022/03/18 01:16:09;;;;;;;14.63;5.47;;;;;;;2.88;80.85;102822.19;5011781;28;20128;-65
2022/03/18 01:19:12;;;;;;;10.02;4.97;;;;;;;2.74;81.33;102825.44;5012003;28;20463;-65
2022/03/18 01:22:15;;;;;;;;;;;;;;;2.70;81.23;102830.50;5012049;28;20045;-65
2022/03/18 01:25:19;;;;;;;10.88;5.07;;;;;;;2.61;81.56;102827.75;5011918;28;19964;-65
2022/03/18 01:28:23;;;;;;;15.70;5.15;;;;;;;2.80;81.09;102829.81;5011698;28;20049;-65
2022/03/18 01:31:27;;;;;;;13.07;5.75;;;;;;;2.87;80.63;102815.28;5011937;28;20052;-65
2022/03/18 01:34:30;;;;;;;12.15;5.15;;;;;;;2.90;80.18;102820.50;5011987;28;20060;-65
2022/03/18 01:37:33;;;;;;;11.18;5.07;;;;;;;2.68;80.64;102829.59;5011409;28;20609;-65
2022/03/18 01:40:36;;;;;;;13.43;5.53;;;;;;;2.74;80.87;102828.00;5011470;28;20081;-65
2022/03/18 01:43:44;;;;;;;12.27;4.68;;;;;;;2.79;80.57;102828.94;5011433;28;20133;-65
2022/03/18 01:46:48;;;;;;;11.18;4.88;;;;;;;2.88;80.23;102833.41;5011504;28;20060;-65
2022/03/18 01:49:51;;;;;;;8.50;6.32;;;;;;;2.72;80.15;102834.00;5011694;28;20459;-64
2022/03/18 01:52:54;;;;;;;16.10;6.07;;;;;;;2.58;81.00;102833.72;5011529;28;20117;-65
2022/03/18 01:55:58;;;;;;;;;;;;;;;2.48;81.80;102840.44;5011948;28;20615;-65
2022/03/18 01:59:01;;;;;;;11.95;5.47;;;;;;;2.58;81.41;102835.44;5010512;28;20106;-65
2022/03/18 02:02:04;;;;;;;10.80;6.03;;;;;;;2.60;81.61;102831.19;5011690;28;20057;-64
2022/03/18 02:05:09;;;;;;;18.70;5.32;;;;;;;2.68;81.15;102832.19;5011629;28;20056;-64
2022/03/18 02:08:17;;;;;;;10.82;5.18;;;;;;;2.82;80.48;102835.00;5011449;28;20411;-65
2022/03/18 02:11:21;;;;;;;9.52;5.03;;;;;;;2.83;80.06;102837.59;5011418;28;20139;-65
2022/03/18 02:14:35;;;;;;;20.23;5.70;;;;;;;2.65;80.84;102839.88;5011832;28;20526;-64
2022/03/18 02:17:38;;;;;;;13.60;5.82;;;;;;;2.61;81.24;102853.59;5015046;28;20052;-65
2022/03/18 02:20:42;;;;;;;19.15;6.00;;;;;;;2.42;81.95;102847.22;5015176;28;20045;-65
2022/03/18 02:23:45;;;;;;;19.88;6.78;;;;;;;2.40;82.14;102844.63;5015162;28;20100;-65
2022/03/18 02:26:50;;;;;;;14.43;5.65;;;;;;;2.47;82.16;102843.00;5015320;28;20483;-64
2022/03/18 02:29:53;;;;;;;15.57;6.40;;;;;;;2.64;81.57;102840.72;5015069;28;20037;-65
2022/03/18 02:32:57;;;;;;;20.77;7.18;;;;;;;2.68;80.94;102847.69;5015173;28;20049;-64
2022/03/18 02:36:00;;;;;;;16.50;6.55;;;;;;;2.75;80.43;102847.81;5014920;28;20049;-65
2022/03/18 02:39:04;;;;;;;23.17;7.55;;;;;;;2.68;80.75;102850.25;5014820;28;20576;-65
2022/03/18 02:42:07;;;;;;;18.20;7.20;;;;;;;2.49;81.39;102844.78;5015057;28;20100;-65
2022/03/18 02:45:11;;;;;;;19.08;7.63;;;;;;;2.52;81.72;102851.69;5014771;28;20160;-65
2022/03/18 02:48:14;;;;;;;17.45;6.65;;;;;;;2.55;81.64;102852.66;5014607;28;20073;-64
2022/03/18 02:51:18;;;;;;;19.83;7.43;;;;;;;2.69;80.93;102854.59;5012962;28;20427;-64
2022/03/18 02:54:21;;;;;;;;;;;;;;;2.53;81.50;102851.75;5014942;28;20514;-65
2022/03/18 02:57:24;;;;;;;17.52;7.68;;;;;;;2.41;82.22;102861.84;5013859;28;19968;-65
2022/03/18 03:00:27;;;;;;;19.83;7.95;;;;;;;2.58;81.93;102858.69;5014290;28;20049;-65
2022/03/18 03:03:30;;;;;;;17.13;8.15;;;;;;;2.70;81.55;102869.25;5014318;28;20112;-65
2022/03/18 03:09:57;;;;;;;17.83;7.93;;;;;;;2.65;81.63;102881.19;5014370;28;20175;-64
2022/03/18 03:13:05;;;;;;;14.20;8.23;;;;;;;2.66;81.92;102877.78;5014282;28;20125;-65
2022/03/18 03:16:08;;;;;;;17.45;7.10;;;;;;;2.72;81.60;102885.66;5014431;28;20053;-65
2022/03/18 03:19:13;;;;;;;14.38;7.78;;;;;;;2.64;81.59;102890.66;5014149;28;20068;-65
2022/03/18 03:22:17;;;;;;;18.23;7.90;;;;;;;2.53;81.75;102890.47;5014225;28;20041;-65
2022/03/18 03:25:20;;;;;;;20.85;8.25;;;;;;;2.43;82.41;102906.66;5014304;28;20057;-65
2022/03/18 03:28:25;;;;;;;10.55;7.03;;;;;;;2.27;83.12;102902.03;4717246;28;10001267;-65
2022/03/18 03:31:29;;;;;;;14.02;7.53;;;;;;;2.49;82.52;102909.34;5010984;28;20326;-65
2022/03/18 03:34:32;;;;;;;16.60;7.88;;;;;;;2.52;82.32;102912.00;5010882;28;20076;-65
2022/03/18 03:37:35;;;;;;;12.32;7.95;;;;;;;2.35;82.81;102915.94;5010325;28;20061;-64
2022/03/18 03:40:40;;;;;;;;;;;;;;;2.36;82.86;102915.09;5010654;28;20053;-65
2022/03/18 03:43:43;;;;;;;14.82;7.85;;;;;;;2.44;82.40;102921.28;5010427;28;20289;-64
2022/03/18 03:46:46;;;;;;;13.27;7.78;;;;;;;2.32;82.40;102921.91;5010152;28;20044;-64
2022/03/18 03:49:50;;;;;;;;;;;;;;;2.18;82.78;102925.06;5010362;28;20472;-64
2022/03/18 03:52:53;;;;;;;35.08;7.97;;;;;;;2.08;83.48;102930.03;5010220;28;19924;-64
2022/03/18 03:55:57;;;;;;;11.85;7.75;;;;;;;2.22;83.42;102932.03;5010272;28;20049;-64
2022/03/18 03:59:00;;;;;;;11.45;7.20;;;;;;;2.15;83.07;102943.06;5010364;28;20535;-65
2022/03/18 04:02:04;;;;;;;14.48;7.38;;;;;;;2.04;82.92;102938.53;5010279;28;20052;-64
2022/03/18 04:05:08;;;;;;;23.58;8.38;;;;;;;1.99;83.29;102945.31;5010770;28;20103;-64
2022/03/18 04:08:11;;;;;;;14.27;7.57;;;;;;;1.82;83.97;102942.34;5010365;28;20112;-64
2022/03/18 04:11:14;;;;;;;14.75;8.05;;;;;;;1.72;83.87;102949.84;5010404;28;20053;-64
2022/03/18 04:14:18;;;;;;;;;;;;;;;2.01;83.15;102950.47;5010094;28;20179;-65
2022/03/18 04:17:22;;;;;;;12.50;6.93;;;;;;;2.04;83.39;102955.72;5009403;28;20634;-64
2022/03/18 04:20:27;;;;;;;46.15;9.18;;;;;;;1.84;84.38;102958.72;5009637;28;20044;-64
2022/03/18 04:23:30;;;;;;;36.08;6.97;;;;;;;1.95;84.66;102963.28;5009553;28;20084;-65
2022/03/18 04:26:34;;;;;;;19.70;8.02;;;;;;;2.18;83.76;102974.97;5009953;28;20056;-64
2022/03/18 04:29:37;;;;;;;15.95;8.15;;;;;;;2.20;83.17;102978.47;5008852;28;20626;-64
2022/03/18 04:32:41;;;;;;;37.17;7.78;;;;;;;2.01;83.52;102984.03;5009274;28;20056;-65
2022/03/18 04:35:44;;;;;;;22.52;7.53;;;;;;;1.92;83.85;102984.72;5009360;28;20088;-64
2022/03/18 04:38:48;;;;;;;23.42;7.22;;;;;;;1.84;84.37;102993.97;5009261;28;20088;-65
2022/03/18 04:41:51;;;;;;;;;;;;;;;1.77;84.35;102999.84;5009302;28;20695;-64
2022/03/18 04:44:54;;;;;;;11.83;6.73;;;;;;;1.73;84.86;102996.31;5009358;28;19975;-64
2022/03/18 04:47:57;;;;;;;;;;;;;;;1.71;84.79;102994.53;5015145;28;20553;-64
2022/03/18 04:51:02;;;;;;;15.70;7.20;;;;;;;1.88;84.79;103003.53;5027547;28;19974;-65
2022/03/18 04:54:05;;;;;;;22.00;6.93;;;;;;;1.72;84.79;103004.88;5028213;28;20107;-65
2022/03/18 04:57:21;;;;;;;28.65;7.63;;;;;;;1.65;85.23;103010.72;5026730;28;20084;-65
2022/03/18 05:00:25;;;;;;;25.77;6.50;;;;;;;1.65;85.39;103013.28;5005005;28;20415;-65
2022/03/18 05:03:29;;;;;;;15.43;7.22;;;;;;;1.55;85.82;103021.66;5008707;28;20437;-65
2022/03/18 05:06:33;;;;;;;18.90;6.03;;;;;;;1.54;85.70;103033.66;5021494;28;20052;-64
2022/03/18 05:09:41;;;;;;;11.60;7.30;;;;;;;1.71;85.24;103035.78;5028346;28;20195;-64
2022/03/18 05:12:45;;;;;;;13.52;6.78;;;;;;;1.85;84.62;103045.63;5027852;28;20136;-64
2022/03/18 05:15:49;;;;;;;23.95;7.60;;;;;;;1.78;84.91;103048.88;4683693;28;10001157;-65
2022/03/18 05:18:53;;;;;;;18.55;6.35;;;;;;;1.85;84.27;103055.03;4988785;28;20281;-64
2022/03/18 05:21:57;;;;;;;17.80;8.35;;;;;;;1.90;84.02;103063.78;4987581;28;20141;-64
2022/03/18 05:25:01;;;;;;;15.07;6.90;;;;;;;1.69;84.36;103055.50;4991362;28;20065;-64
2022/03/18 05:28:04;;;;;;;;;;;;;;;1.57;84.83;103066.41;4991391;28;20470;-64
2022/03/18 05:31:07;;;;;;;13.30;5.97;;;;;;;1.75;84.45;103063.41;4992020;28;19920;-65
2022/03/18 05:34:11;;;;;;;13.23;6.35;;;;;;;1.74;84.73;103061.66;4991311;28;20053;-64
2022/03/18 05:37:15;;;;;;;13.00;7.45;;;;;;;1.79;84.72;103066.13;4991427;28;20048;-64
2022/03/18 05:40:18;;;;;;;13.38;8.90;;;;;;;1.90;84.08;103068.94;4991213;28;20054;-64
2022/03/18 05:43:22;;;;;;;33.47;13.05;;;;;;;1.72;84.00;103073.63;4997327;28;20111;-64
2022/03/18 05:46:26;;;;;;;39.17;15.93;;;;;;;1.55;84.24;103076.66;5006968;28;20280;-65
2022/03/18 05:49:29;;;;;;;23.88;11.63;;;;;;;1.65;84.24;103071.75;5006644;28;20068;-65
2022/03/18 05:52:33;;;;;;;34.10;11.10;;;;;;;1.60;84.12;103080.25;5010773;28;20586;-65
2022/03/18 05:58:59;;;;;;;52.88;8.98;;;;;;;1.68;83.66;103093.31;5010728;28;20171;-65
2022/03/18 06:02:03;;;;;;;22.88;7.47;;;;;;;1.48;84.01;103090.22;5010935;28;20093;-65
2022/03/18 06:05:06;;;;;;;50.38;7.63;;;;;;;1.34;84.99;103099.28;5011061;28;20049;-64
2022/03/18 06:11:50;;;;;;;15.98;9.85;;;;;;;1.32;84.89;103104.41;5010869;28;20338;-65
2022/03/18 06:14:53;;;;;;;26.60;9.38;;;;;;;1.25;85.14;103112.81;5011127;28;20049;-65
2022/03/18 06:17:56;;;;;;;25.27;11.38;;;;;;;1.17;85.00;103110.00;5011263;28;20084;-64
2022/03/18 06:21:00;;;;;;;30.35;9.85;;;;;;;1.17;84.76;103122.91;5010972;28;20053;-64
2022/03/18 06:24:04;;;;;;;15.98;8.48;;;;;;;1.23;84.80;103123.91;5009537;28;20052;-64
2022/03/18 06:27:07;;;;;;;19.40;6.22;;;;;;;1.22;84.74;103128.19;5009754;28;20044;-65
2022/03/18 06:30:12;;;;;;;21.08;5.85;;;;;;;1.18;84.37;103126.34;5010229;28;20411;-65
2022/03/18 06:33:15;;;;;;;14.30;5.78;;;;;;;1.07;84.69;103131.19;4998764;28;20108;-64
2022/03/18 06:36:18;;;;;;;9.13;5.97;;;;;;;1.17;84.54;103132.34;5010597;28;20045;-65
2022/03/18 06:39:22;;;;;;;15.55;6.60;;;;;;;1.24;83.94;103139.41;5009854;28;20592;-65
2022/03/18 06:42:25;;;;;;;23.27;6.47;;;;;;;1.31;83.63;103143.06;5009614;28;20101;-65
2022/03/18 06:45:29;;;;;;;10.48;6.53;;;;;;;1.15;83.78;103142.63;5009922;28;20045;-64
2022/03/18 06:48:32;;;;;;;9.52;7.20;;;;;;;1.32;83.37;103142.22;5011019;28;20099;-64
2022/03/18 06:51:35;;;;;;;11.32;7.53;;;;;;;1.28;83.53;103156.72;5010976;28;20112;-64
2022/03/18 06:54:39;;;;;;;;;;;;;;;1.26;83.28;103149.78;5010863;28;20522;-64
2022/03/18 06:57:42;;;;;;;15.18;9.25;;;;;;;1.14;83.73;103155.44;5009593;28;19968;-64
2022/03/18 07:00:45;;;;;;;26.55;8.38;;;;;;;1.16;83.82;103156.38;5008718;28;20518;-65
2022/03/18 07:03:49;;;;;;;;;;;;;;;1.33;83.48;103162.00;5002278;28;20049;-64
2022/03/18 07:06:52;;;;;;;33.58;9.20;;;;;;;1.37;82.77;103163.81;5012913;28;19920;-64
2022/03/18 07:09:55;;;;;;;11.85;8.85;;;;;;;1.45;82.85;103162.34;5014426;28;20119;-64
2022/03/18 07:12:59;;;;;;;17.40;8.38;;;;;;;1.42;82.92;103164.84;5014426;28;20078;-64
2022/03/18 07:19:25;;;;;;;20.30;11.82;;;;;;;1.36;83.50;103173.28;5014092;28;20092;-64
2022/03/18 07:22:28;;;;;;;24.90;13.57;;;;;;;1.40;83.21;103181.97;5014143;28;20073;-64
2022/03/18 07:25:34;;;;;;;21.17;12.30;;;;;;;1.50;83.43;103181.41;5014325;28;20044;-64
2022/03/18 07:28:37;;;;;;;18.02;9.05;;;;;;;1.34;84.15;103176.63;5013981;28;20044;-64
2022/03/18 07:31:40;;;;;;;6.28;4.80;;;;;;;1.43;83.77;103183.75;5013929;28;20096;-64
2022/03/18 07:34:43;;;;;;;;;;;;;;;1.39;83.61;103199.13;5014513;28;20045;-64
2022/03/18 07:37:48;;;;;;;6.80;4.68;;;;;;;1.36;83.87;103199.03;5014001;28;19921;-64
2022/03/18 07:40:51;;;;;;;18.92;9.93;;;;;;;1.34;83.83;103210.13;5013685;28;20044;-63
2022/03/18 07:43:54;;;;;;;15.20;11.63;;;;;;;1.27;84.39;103203.06;5013729;28;20123;-64
2022/03/18 07:46:57;;;;;;;18.80;14.13;;;;;;;1.44;84.25;103211.31;5013905;28;20044;-64
2022/03/18 07:50:01;;;;;;;20.70;12.43;;;;;;;1.45;84.09;103208.75;5013812;28;20040;-64
2022/03/18 07:53:08;;;;;;;11.73;6.63;;;;;;;1.39;84.38;103200.84;5013591;28;20335;-64
2022/03/18 07:56:11;;;;;;;8.73;6.70;;;;;;;1.35;84.87;103215.34;5013410;28;20044;-64
2022/03/18 07:59:14;;;;;;;12.32;8.90;;;;;;;1.57;84.34;103209.09;5013371;28;20053;-64
2022/03/18 08:02:17;;;;;;;12.82;9.32;;;;;;;1.82;83.64;103210.66;5013744;28;20100;-64
2022/03/18 08:05:21;;;;;;;15.10;11.35;;;;;;;1.81;83.84;103208.03;5013365;28;20583;-64
2022/03/18 08:08:25;;;;;;;14.93;10.55;;;;;;;2.14;82.52;103207.16;5013235;28;20044;-64
2022/03/18 08:11:28;;;;;;;13.57;10.43;;;;;;;2.18;82.77;103209.00;5013057;28;20087;-64
2022/03/18 08:14:32;;;;;;;11.23;7.70;;;;;;;2.14;83.47;103202.88;5013150;28;20044;-64
2022/03/18 08:17:36;;;;;;;;;;;;;;;2.11;84.01;103210.56;5013705;28;20057;-64
2022/03/18 08:20:40;;;;;;;9.60;7.32;;;;;;;2.18;84.49;103209.88;5012988;28;20588;-64
2022/03/18 08:23:44;;;;;;;12.30;7.57;;;;;;;2.30;84.62;103205.00;5012749;28;20125;-64
2022/03/18 08:26:47;;;;;;;12.20;8.68;;;;;;;2.35;84.97;103196.50;5012436;28;20506;-64
2022/03/18 08:29:50;;;;;;;7.68;6.88;;;;;;;2.50;85.73;103207.22;5009833;28;20052;-64
2022/03/18 08:32:54;;;;;;;;;;;;;;;2.64;86.25;103200.66;5009075;28;20111;-64
2022/03/18 08:35:57;;;;;;;9.63;7.55;;;;;;;2.79;85.41;103198.44;5007957;28;19920;-64
2022/03/18 08:39:01;;;;;;;9.80;6.97;;;;;;;2.95;85.65;103201.34;5007999;28;20034;-64
2022/03/18 08:42:05;;;;;;;12.90;9.27;;;;;;;3.16;85.17;103196.66;5007689;28;20501;-64
2022/03/18 08:45:09;;;;;;;10.88;5.53;;;;;;;3.15;87.05;103194.91;4988333;28;20561;-64
2022/03/18 08:48:12;;;;;;;9.13;5.65;;;;;;;3.35;85.20;103186.69;4999573;28;20403;-64
2022/03/18 08:51:16;;;;;;;8.35;4.18;;;;;;;3.53;83.70;103189.63;5008464;28;20069;-64
2022/03/18 08:54:21;;;;;;;7.45;3.30;;;;;;;3.87;81.67;103185.13;5007889;28;20250;-64
2022/03/18 08:57:28;;;;;;;7.50;2.63;;;;;;;4.17;78.93;103192.53;5007770;28;20049;-64
2022/03/18 09:00:31;;;;;;;9.93;2.40;;;;;;;4.49;75.07;103189.59;5008254;28;20052;-65
2022/03/18 09:03:35;;;;;;;9.55;2.40;;;;;;;4.85;71.28;103192.75;5006856;28;20125;-65
2022/03/18 09:06:38;;;;;;;;;;;;;;;5.11;69.22;103195.69;5009612;28;20050;-65
2022/03/18 09:09:41;;;;;;;8.90;3.25;;;;;;;5.13;69.03;103199.16;5008296;28;19924;-65
2022/03/18 09:12:58;;;;;;;;;;;;;;;5.27;68.59;103193.31;5008459;28;20128;-65
2022/03/18 09:16:02;;;;;;;13.45;3.35;;;;;;;5.42;67.06;103184.81;5007455;28;20342;-65
2022/03/18 09:19:06;;;;;;;14.48;2.65;;;;;;;5.54;66.97;103184.97;5008191;28;20144;-65
2022/03/18 09:22:10;;;;;;;8.63;2.70;;;;;;;5.71;66.36;103178.25;5007664;28;20562;-65
2022/03/18 09:25:14;;;;;;;11.93;4.00;;;;;;;5.93;66.84;103174.13;5005949;28;20491;-65
2022/03/18 09:28:18;;;;;;;9.77;2.42;;;;;;;5.99;65.21;103166.41;5007583;28;20288;-65
2022/03/18 09:31:21;;;;;;;8.07;2.22;;;;;;;6.15;64.29;103164.81;5007748;28;20119;-65
2022/03/18 09:34:24;;;;;;;;;;;;;;;6.28;63.99;103169.25;5006849;28;20049;-65
2022/03/18 09:37:28;;;;;;;7.03;2.10;;;;;;;6.40;63.05;103175.41;4987344;28;19921;-65
2022/03/18 09:40:32;;;;;;;;;;;;;;;6.47;62.17;103164.19;4987513;28;20128;-65
2022/03/18 09:43:37;;;;;;;9.68;2.35;;;;;;;6.57;59.23;103166.00;4987897;28;19988;-65
2022/03/18 09:46:41;;;;;;;8.70;2.42;;;;;;;6.66;59.59;103165.19;5004145;28;20045;-66
2022/03/18 09:49:45;;;;;;;7.45;2.40;;;;;;;6.72;59.88;103167.81;5006691;28;20578;-66
2022/03/18 09:52:48;;;;;;;8.25;1.85;;;;;;;7.04;58.92;103155.00;5006619;28;20196;-66
2022/03/18 09:55:53;;;;;;;7.97;2.30;;;;;;;7.14;57.40;103159.38;5007629;28;20045;-65
2022/03/18 09:58:56;;;;;;;8.43;1.63;;;;;;;7.17;58.75;103169.78;5006854;28;20496;-65
2022/03/18 10:02:28;;;;;;;7.90;2.22;;;;;;;7.36;56.05;103154.25;5006794;28;20041;-65
2022/03/18 10:05:32;;;;;;;6.80;2.05;;;;;;;7.43;55.92;103158.59;5006604;28;20073;-65
2022/03/18 10:08:35;;;;;;;6.43;1.83;;;;;;;7.60;52.62;103156.06;5006789;28;20049;-65
2022/03/18 10:11:42;;;;;;;;;;;;;;;7.65;51.90;103160.38;5008058;28;20511;-65
2022/03/18 10:14:46;;;;;;;6.03;1.73;;;;;;;7.84;49.61;103157.81;5006371;28;19920;-65
2022/03/18 10:17:53;;;;;;;6.90;1.80;;;;;;;7.86;50.33;103163.91;5007079;28;20093;-65
2022/03/18 10:21:08;;;;;;;8.15;2.60;;;;;;;7.85;50.16;103159.59;5004879;28;20423;-65
2022/03/18 10:24:11;;;;;;;3.60;2.13;;;;;;;8.03;51.38;103167.38;5007057;28;20049;-65
2022/03/18 10:27:15;;;;;;;;;;;;;;;8.19;48.94;103175.22;5007595;28;20137;-65
2022/03/18 10:30:21;;;;;;;8.95;2.13;;;;;;;8.21;48.53;103179.56;4987321;28;20155;-65
2022/03/18 10:37:04;;;;;;;8.15;1.80;;;;;;;8.32;47.72;103174.34;4986419;28;20108;-65
2022/03/18 10:37:11;;;;;;;5.07;1.88;;;;;;;8.33;47.80;103179.56;4989597;28;20058;-65
2022/03/18 10:40:17;;;;;;;6.43;1.70;;;;;;;8.59;47.63;103171.75;4991230;28;20049;-65
2022/03/18 10:43:21;;;;;;;7.50;2.45;;;;;;;8.60;45.92;103172.63;5003072;28;20112;-65
2022/03/18 10:46:24;;;;;;;;;;;;;;;8.64;46.73;103179.56;5011869;28;20511;-65
2022/03/18 10:49:28;;;;;;;11.50;2.20;;;;;;;8.74;47.80;103180.41;4997364;28;19921;-65
2022/03/18 10:52:31;;;;;;;6.22;1.80;;;;;;;8.75;47.18;103184.78;4990927;28;20061;-65
2022/03/18 10:55:36;;;;;;;7.82;2.45;;;;;;;8.79;46.88;103183.88;4991090;28;20065;-65
2022/03/18 10:58:40;;;;;;;6.65;2.00;;;;;;;8.94;47.13;103183.84;4990043;28;20101;-65
2022/03/18 11:01:47;;;;;;;5.13;2.05;;;;;;;8.94;46.79;103183.84;4990702;28;20093;-65
2022/03/18 11:04:50;;;;;;;6.82;1.77;;;;;;;8.96;46.90;103186.44;4993532;28;20108;-65
2022/03/18 11:07:54;;;;;;;;;;;;;;;9.07;44.75;103177.72;5010362;28;20052;-65
2022/03/18 11:11:07;;;;;;;;;;;;;;;9.23;44.13;103180.25;5009716;28;19971;-65
2022/03/18 11:14:10;;;;;;;10.82;1.60;;;;;;;9.43;40.50;103164.50;5010423;28;19967;-65
2022/03/18 11:17:14;;;;;;;4.88;1.25;;;;;;;9.57;42.03;103165.28;5009951;28;20080;-65
2022/03/18 11:20:21;;;;;;;6.18;1.73;;;;;;;9.50;40.89;103172.28;5009546;28;20112;-65
2022/03/18 11:23:25;;;;;;;4.90;1.80;;;;;;;9.66;40.72;103172.19;5009827;28;20052;-66
2022/03/18 11:26:28;;;;;;;8.80;1.95;;;;;;;9.84;39.98;103169.47;5009141;28;20428;-65
2022/03/18 11:29:33;;;;;;;5.47;1.67;;;;;;;9.81;40.38;103171.25;5010440;28;20057;-65
2022/03/18 11:32:38;;;;;;;4.65;1.33;;;;;;;9.90;40.93;103169.44;5011288;28;20076;-65
2022/03/18 11:35:47;;;;;;;8.75;1.73;;;;;;;10.00;39.98;103170.22;5011072;28;20072;-65
2022/03/18 11:38:58;;;;;;;5.68;1.40;;;;;;;10.05;40.76;103164.94;5010904;28;20045;-65
2022/03/18 11:42:09;;;;;;;8.15;2.10;;;;;;;10.25;40.68;103163.06;4991614;28;20412;-65
2022/03/18 11:45:32;;;;;;;4.95;1.33;;;;;;;10.17;40.53;103159.63;4991436;28;20237;-65
2022/03/18 11:48:37;;;;;;;7.53;1.73;;;;;;;10.41;39.77;103161.19;4989864;28;20419;-65
2022/03/18 11:51:42;;;;;;;4.22;1.20;;;;;;;10.70;38.57;103159.16;4990098;28;20089;-65
2022/03/18 11:54:53;;;;;;;6.60;1.30;;;;;;;10.64;39.58;103151.34;5003181;28;20049;-66
2022/03/18 11:57:57;;;;;;;6.35;1.73;;;;;;;10.90;39.33;103137.13;5009947;28;20112;-66
2022/03/18 12:01:02;;;;;;;8.20;1.67;;;;;;;10.75;37.82;103140.75;4997827;28;20045;-65
2022/03/18 12:04:07;;;;;;;5.93;1.42;;;;;;;10.89;35.96;103124.91;5010484;28;20049;-65
2022/03/18 12:07:13;;;;;;;5.22;1.40;;;;;;;11.01;38.24;103136.97;5011851;28;20643;-64
2022/03/18 12:10:36;;;;;;;7.60;1.67;;;;;;;11.24;36.42;103128.84;5012737;28;20631;-64
2022/03/18 12:13:39;;;;;;;5.20;1.10;;;;;;;11.33;35.74;103133.97;4999335;28;20069;-64
2022/03/18 12:16:43;;;;;;;;;;;;;;;11.34;36.78;103123.44;5012498;28;20052;-64
2022/03/18 12:19:52;;;;;;;8.18;1.40;;;;;;;11.46;36.51;103129.41;5012563;28;19919;-64
2022/03/18 12:22:57;;;;;;;9.07;1.67;;;;;;;11.75;33.41;103124.59;5011370;28;20140;-64
2022/03/18 12:26:05;;;;;;;5.28;0.88;;;;;;;11.96;34.24;103127.78;5012517;28;20102;-64
2022/03/18 12:29:17;;;;;;;4.93;1.35;;;;;;;12.25;33.88;103130.78;5012334;28;20048;-64
2022/03/18 12:32:20;;;;;;;2.60;0.85;;;;;;;12.55;31.51;103121.47;5012571;28;20192;-64
2022/03/18 12:35:38;;;;;;;;;;;;;;;13.01;30.00;103117.91;5013392;28;20474;-64
2022/03/18 12:38:46;;;;;;;4.20;1.02;;;;;;;13.41;30.07;103110.97;5012809;28;19928;-64
2022/03/18 12:41:50;;;;;;;4.10;1.30;;;;;;;13.77;28.25;103096.06;5012707;28;20063;-64
2022/03/18 12:44:59;;;;;;;4.18;0.88;;;;;;;13.95;27.81;103102.66;5012731;28;20112;-64
2022/03/18 12:48:05;;;;;;;7.20;1.15;;;;;;;14.21;26.33;103103.75;5012759;28;20125;-64
2022/03/18 12:51:08;;;;;;;4.45;1.02;;;;;;;14.46;25.70;103091.66;5012418;28;20100;-64
2022/03/18 12:54:12;;;;;;;4.85;0.98;;;;;;;14.72;25.94;103087.44;5012478;28;20160;-64
2022/03/18 12:57:37;;;;;;;6.75;1.65;;;;;;;15.00;25.54;103083.09;5011656;28;20044;-64
2022/03/18 13:00:46;;;;;;;3.65;1.00;;;;;;;15.26;25.49;103086.69;5012478;28;20514;-64
2022/03/18 13:03:51;;;;;;;3.83;1.08;;;;;;;15.50;24.69;103072.72;5012227;28;20103;-64
2022/03/18 13:06:57;;;;;;;4.78;1.33;;;;;;;15.74;23.73;103080.78;5012345;28;20089;-64
2022/03/18 13:10:03;;;;;;;5.63;1.40;;;;;;;16.24;24.09;103078.16;5012032;28;20111;-64
2022/03/18 13:13:11;;;;;;;3.88;1.00;;;;;;;16.83;23.52;103076.94;5012120;28;20121;-64
2022/03/18 13:16:15;;;;;;;3.55;0.85;;;;;;;17.20;22.66;103073.72;5012070;28;20092;-65
2022/03/18 13:19:18;;;;;;;2.78;0.90;;;;;;;17.96;22.02;103071.50;5000341;28;20044;-65
2022/03/18 13:22:24;;;;;;;3.17;1.00;;;;;;;18.68;19.62;103069.16;5012386;28;20052;-66
2022/03/18 13:25:28;;;;;;;3.72;1.33;;;;;;;20.74;18.94;103061.50;5011826;28;20523;-66
2022/03/18 13:28:32;;;;;;;5.40;1.75;;;;;;;22.48;16.76;103056.56;5012098;28;20077;-66
2022/03/18 13:35:10;;;;;;;5.38;2.00;;;;;;;27.02;13.20;103057.69;5012025;28;20053;-66
2022/03/18 13:38:16;;;;;;;3.75;1.33;;;;;;;27.43;11.66;103056.09;5011572;28;20117;-67
2022/03/18 13:41:20;;;;;;;4.25;1.30;;;;;;;30.08;10.26;103034.91;5009935;28;20187;-66
2022/03/18 13:44:23;;;;;;;4.63;1.38;;;;;;;28.59;9.99;103029.88;5008062;28;20415;-66
2022/03/18 13:47:28;;;;;;;3.72;1.20;;;;;;;27.96;10.39;103039.94;5008141;28;20551;-67
2022/03/18 13:50:46;;;;;;;3.35;1.20;;;;;;;29.20;9.34;103024.28;5007573;28;20306;-67
2022/03/18 13:54:11;;;;;;;4.68;1.50;;;;;;;28.90;8.72;103033.31;5007127;28;20129;-67
2022/03/18 13:57:15;;;;;;;4.75;1.40;;;;;;;30.41;9.52;103030.81;4997751;28;20103;-67
2022/03/18 14:00:30;;;;;;;6.30;1.40;;;;;;;29.62;8.34;103018.59;5006720;28;20048;-69
2022/03/18 14:03:38;;;;;;;2.78;1.40;;;;;;;27.51;9.45;103016.00;5006507;28;20049;-67
2022/03/18 14:07:01;;;;;;;4.05;1.45;;;;;;;29.24;9.55;103014.06;5006510;28;20064;-67
2022/03/18 14:10:07;;;;;;;4.22;1.35;;;;;;;27.42;9.67;103017.63;4995771;28;20439;-66
2022/03/18 14:13:13;;;;;;;3.85;1.80;;;;;;;28.14;9.96;103008.72;5011580;28;20133;-66
2022/03/18 14:16:16;;;;;;;2.88;1.50;;;;;;;31.35;7.93;103007.97;5014341;28;20057;-66
2022/03/18 14:20:00;;;;;;;5.97;2.33;;;;;;;29.00;7.93;103005.53;5012495;28;20087;-67
2022/03/18 14:23:41;;;;;;;2.75;1.25;;;;;;;29.32;7.89;103000.72;5015137;28;20121;-67
2022/03/18 14:26:45;;;;;;;3.58;1.83;;;;;;;30.56;7.32;102996.03;5004700;28;20507;-67
2022/03/18 14:29:48;;;;;;;3.63;1.40;;;;;;;29.33;8.02;102996.19;5015186;28;20053;-67
2022/03/18 14:32:56;;;;;;;2.70;1.13;;;;;;;29.88;7.12;102999.91;5015382;28;20099;-67
2022/03/18 14:36:00;;;;;;;2.30;1.20;;;;;;;30.73;7.22;102997.91;5015012;28;20044;-67
2022/03/18 14:39:03;;;;;;;6.18;1.52;;;;;;;29.91;7.97;102997.91;5014727;28;20048;-67
2022/03/18 14:42:07;;;;;;;3.30;1.40;;;;;;;30.94;7.46;102992.22;5014860;28;20048;-67
2022/03/18 14:45:11;;;;;;;2.67;1.25;;;;;;;28.96;7.75;102991.50;5014847;28;20044;-65
2022/03/18 14:48:16;;;;;;;3.40;1.52;;;;;;;29.71;8.48;102987.22;5014905;28;20053;-65
2022/03/18 14:51:20;;;;;;;4.13;1.60;;;;;;;30.52;8.25;102984.69;5014425;28;20476;-65
2022/03/18 14:56:17;;;;;;;3.45;1.48;;;;;;;26.85;8.80;102987.47;5014581;28;20121;-65
2022/03/18 14:57:46;;;;;;;3.85;1.08;;;;;;;29.61;8.50;102980.97;5014597;28;20049;-65